createdAt,value
2018-11-10T00:00:22.314Z,96.73
2018-11-10T00:02:54.858Z,105.07
2018-11-10T00:05:27.060Z,105.87
2018-11-10T00:07:59.225Z,106.00
2018-11-10T00:10:31.497Z,108.73
2018-11-10T00:13:04.232Z,109.87
2018-11-10T00:15:36.226Z,104.57
2018-11-10T00:18:08.825Z,105.60
2018-11-10T00:20:41.027Z,108.30
2018-11-10T00:23:13.405Z,99.37
2018-11-10T00:25:45.299Z,113.60
2018-11-10T00:28:17.468Z,97.70
2018-11-10T00:30:49.487Z,98.70
2018-11-10T00:33:21.593Z,107.23
2018-11-10T00:35:53.647Z,96.30
2018-11-10T00:38:25.737Z,97.03
2018-11-10T00:40:57.898Z,101.33
2018-11-10T00:43:29.861Z,95.30
2018-11-10T00:46:02.076Z,104.60
2018-11-10T00:48:34.275Z,103.77
2018-11-10T00:51:06.414Z,106.50
2018-11-10T00:53:38.517Z,92.93
2018-11-10T00:56:10.831Z,102.83
2018-11-10T00:58:43.064Z,87.03
2018-11-10T01:01:15.135Z,96.50
2018-11-10T01:03:47.049Z,98.77
2018-11-10T01:06:19.270Z,99.47
2018-11-10T01:08:51.222Z,103.50
2018-11-10T01:11:23.259Z,100.60
2018-11-10T01:13:55.075Z,110.17
2018-11-10T01:16:27.305Z,99.33
2018-11-10T01:18:59.587Z,106.13
2018-11-10T01:21:31.532Z,106.70
2018-11-10T01:24:03.357Z,96.43
2018-11-10T01:26:35.373Z,107.00
2018-11-10T01:29:08.193Z,111.40
2018-11-10T01:31:40.276Z,99.87
2018-11-10T01:34:12.365Z,100.70
2018-11-10T01:36:44.725Z,112.53
2018-11-10T01:39:16.440Z,113.60
2018-11-10T01:41:48.815Z,102.10
2018-11-10T01:44:20.908Z,118.70
2018-11-10T01:46:53.035Z,98.40
2018-11-10T01:49:25.124Z,107.83
2018-11-10T01:51:57.126Z,97.80
2018-11-10T01:54:28.854Z,98.50
2018-11-10T01:57:01.800Z,104.70
2018-11-10T01:59:33.839Z,101.03
2018-11-10T02:02:06.149Z,103.57
2018-11-10T02:04:38.004Z,99.37
2018-11-10T02:07:10.282Z,88.90
2018-11-10T02:09:42.242Z,96.50
2018-11-10T02:12:14.289Z,102.50
2018-11-10T02:14:46.241Z,96.27
2018-11-10T02:17:18.446Z,96.17
2018-11-10T02:19:50.832Z,98.93
2018-11-10T02:22:22.910Z,101.23
2018-11-10T02:24:54.878Z,93.90
2018-11-10T02:27:26.900Z,102.37
2018-11-10T02:29:59.034Z,99.23
2018-11-10T02:32:30.980Z,96.20
2018-11-10T02:35:02.829Z,105.83
2018-11-10T02:37:34.685Z,103.80
2018-11-10T02:40:07.040Z,94.63
2018-11-10T02:42:39.137Z,89.37
2018-11-10T02:45:12.590Z,97.80
2018-11-10T02:47:45.467Z,108.33
2018-11-10T02:50:17.694Z,89.20
2018-11-10T02:52:49.548Z,99.80
2018-11-10T02:55:21.677Z,97.53
2018-11-10T02:57:53.643Z,96.33
2018-11-10T03:00:25.542Z,92.57
2018-11-10T03:02:57.558Z,100.87
2018-11-10T03:05:29.960Z,90.23
2018-11-10T03:08:02.930Z,99.57
2018-11-10T03:10:35.215Z,88.07
2018-11-10T03:13:07.678Z,98.07
2018-11-10T03:15:39.318Z,105.53
2018-11-10T03:18:10.969Z,112.70
2018-11-10T03:20:42.856Z,99.40
2018-11-10T03:23:14.813Z,104.37
2018-11-10T03:25:46.656Z,106.60
2018-11-10T03:28:18.724Z,100.03
2018-11-10T03:30:50.564Z,114.77
2018-11-10T03:33:22.541Z,108.70
2018-11-10T03:35:54.733Z,101.17
2018-11-10T03:38:27.726Z,108.43
2018-11-10T03:41:00.734Z,116.50
2018-11-10T03:43:32.944Z,104.00
2018-11-10T03:46:04.421Z,103.57
2018-11-10T03:48:36.283Z,108.07
2018-11-10T03:51:08.395Z,94.43
2018-11-10T03:53:40.710Z,112.37
2018-11-10T03:56:12.984Z,105.30
2018-11-10T03:58:44.796Z,114.33
2018-11-10T04:01:17.168Z,112.67
2018-11-10T04:03:49.207Z,99.57
2018-11-10T04:06:21.353Z,110.30
2018-11-10T04:08:53.690Z,107.83
2018-11-10T04:11:26.005Z,107.87
2018-11-10T04:13:57.857Z,107.63
2018-11-10T04:16:29.876Z,108.50
2018-11-10T04:19:02.056Z,101.43
2018-11-10T04:21:34.385Z,96.50
2018-11-10T04:24:06.453Z,98.40
2018-11-10T04:26:38.381Z,99.73
2018-11-10T04:29:10.208Z,118.37
2018-11-10T04:31:42.213Z,98.50
2018-11-10T04:34:14.257Z,109.10
2018-11-10T04:36:47.061Z,98.90
2018-11-10T04:39:19.313Z,102.03
2018-11-10T04:41:51.272Z,100.53
2018-11-10T04:44:23.378Z,102.77
2018-11-10T04:46:55.270Z,99.23
2018-11-10T04:49:27.095Z,98.53
2018-11-10T04:51:59.356Z,102.13
2018-11-10T04:54:31.328Z,98.43
2018-11-10T04:57:03.277Z,96.50
2018-11-10T04:59:35.225Z,100.73
2018-11-10T05:02:07.221Z,93.17
2018-11-10T05:04:39.244Z,103.33
2018-11-10T05:07:11.030Z,98.43
2018-11-10T05:09:42.934Z,91.30
2018-11-10T05:12:15.577Z,96.27
2018-11-10T05:14:47.709Z,97.63
2018-11-10T05:17:19.683Z,91.00
2018-11-10T05:19:51.585Z,99.10
2018-11-10T05:22:23.525Z,95.77
2018-11-10T05:24:55.573Z,106.70
2018-11-10T05:27:27.301Z,94.23
2018-11-10T05:29:59.581Z,97.83
2018-11-10T05:32:31.576Z,90.43
2018-11-10T05:35:03.397Z,96.87
2018-11-10T05:37:35.163Z,104.87
2018-11-10T05:40:07.687Z,98.47
2018-11-10T05:42:39.713Z,93.67
2018-11-10T05:45:12.741Z,103.90
2018-11-10T05:47:44.607Z,93.30
2018-11-10T05:50:16.466Z,94.20
2018-11-10T05:52:48.529Z,108.27
2018-11-10T05:55:20.454Z,104.10
2018-11-10T05:57:52.541Z,88.93
2018-11-10T06:00:24.670Z,93.63
2018-11-10T06:02:57.603Z,92.30
2018-11-10T06:05:29.600Z,98.57
2018-11-10T06:08:01.388Z,86.07
2018-11-10T06:10:33.446Z,88.33
2018-11-10T06:13:05.476Z,90.93
2018-11-10T06:15:37.450Z,95.07
2018-11-10T06:18:09.553Z,109.50
2018-11-10T06:20:41.585Z,87.30
2018-11-10T06:23:13.422Z,92.50
2018-11-10T06:25:45.529Z,85.63
2018-11-10T06:28:17.614Z,95.13
2018-11-10T06:30:49.403Z,79.20
2018-11-10T06:33:21.475Z,81.67
2018-11-10T06:35:53.412Z,79.53
2018-11-10T06:38:25.441Z,90.17
2018-11-10T06:40:58.394Z,86.77
2018-11-10T06:43:30.402Z,84.00
2018-11-10T06:46:02.318Z,78.77
2018-11-10T06:48:34.318Z,81.63
2018-11-10T06:51:06.635Z,91.17
2018-11-10T06:53:53.660Z,88.53
2018-11-10T06:56:43.881Z,86.93
2018-11-10T06:59:18.588Z,82.07
2018-11-10T07:01:50.739Z,84.03
2018-11-10T07:04:23.356Z,78.47
2018-11-10T07:06:55.814Z,72.37
2018-11-10T07:09:29.068Z,83.47
2018-11-10T07:12:01.343Z,74.57
2018-11-10T07:14:33.129Z,63.43
2018-11-10T07:17:08.797Z,65.30
2018-11-10T07:19:42.707Z,65.10
2018-11-10T07:22:15.035Z,69.80
2018-11-10T07:24:47.280Z,66.70
2018-11-10T07:27:19.235Z,66.00
2018-11-10T07:29:51.410Z,69.77
2018-11-10T07:32:23.468Z,68.30
2018-11-10T07:34:55.957Z,68.83
2018-11-10T07:37:28.881Z,68.93
2018-11-10T07:40:02.671Z,82.40
2018-11-10T07:42:34.645Z,62.97
2018-11-10T07:45:07.409Z,60.00
2018-11-10T07:47:39.462Z,66.80
2018-11-10T07:50:12.183Z,69.80
2018-11-10T07:52:44.545Z,61.90
2018-11-10T07:55:17.070Z,64.50
2018-11-10T07:57:49.211Z,59.77
2018-11-10T08:00:21.279Z,58.67
2018-11-10T08:02:53.320Z,55.33
2018-11-10T08:05:25.215Z,63.83
2018-11-10T08:07:57.372Z,53.60
2018-11-10T08:10:29.633Z,53.47
2018-11-10T08:13:01.902Z,56.27
2018-11-10T08:15:33.864Z,54.57
2018-11-10T08:18:06.239Z,50.50
2018-11-10T08:20:38.244Z,51.17
2018-11-10T08:23:10.258Z,50.63
2018-11-10T08:25:42.408Z,49.43
2018-11-10T08:28:14.334Z,52.50
2018-11-10T08:30:46.275Z,51.33
2018-11-10T08:33:18.020Z,47.20
2018-11-10T08:35:50.147Z,49.37
2018-11-10T08:38:22.891Z,44.00
2018-11-10T08:40:55.284Z,44.70
2018-11-10T08:43:29.682Z,45.67
2018-11-10T08:46:02.021Z,44.40
2018-11-10T08:48:37.402Z,38.10
2018-11-10T08:51:10.419Z,37.33
2018-11-10T08:53:43.867Z,41.00
2018-11-10T08:56:16.090Z,38.97
2018-11-10T08:58:47.989Z,41.37
2018-11-10T09:01:25.640Z,46.50
2018-11-10T09:03:59.606Z,39.60
2018-11-10T09:06:32.693Z,39.90
2018-11-10T09:09:05.241Z,35.20
2018-11-10T09:11:37.661Z,39.07
2018-11-10T09:14:10.369Z,34.33
2018-11-10T09:16:42.656Z,38.20
2018-11-10T09:19:15.051Z,37.50
2018-11-10T09:21:47.828Z,34.20
2018-11-10T09:24:19.985Z,36.70
2018-11-10T09:26:52.132Z,43.13
2018-11-10T09:29:24.961Z,43.80
2018-11-10T09:31:57.821Z,39.40
2018-11-10T09:34:29.590Z,42.33
2018-11-10T09:37:01.588Z,38.60
2018-11-10T09:39:34.254Z,42.53
2018-11-10T09:42:06.589Z,39.90
2018-11-10T09:44:38.558Z,40.40
2018-11-10T09:47:10.598Z,45.63
2018-11-10T09:49:42.820Z,39.93
2018-11-10T09:52:14.965Z,46.87
2018-11-10T09:54:46.925Z,38.77
2018-11-10T09:57:18.879Z,37.47
2018-11-10T09:59:50.900Z,41.20
2018-11-10T10:02:23.517Z,45.53
2018-11-10T10:04:55.385Z,33.93
2018-11-10T10:07:27.383Z,48.37
2018-11-10T10:10:01.269Z,34.50
2018-11-10T10:12:34.084Z,42.03
2018-11-10T10:15:06.915Z,40.70
2018-11-10T10:17:39.214Z,36.10
2018-11-10T10:20:14.062Z,36.00
2018-11-10T10:22:46.996Z,34.47
2018-11-10T10:25:20.034Z,40.00
2018-11-10T10:27:52.483Z,35.43
2018-11-10T10:30:25.891Z,37.33
2018-11-10T10:32:58.488Z,33.57
2018-11-10T10:35:32.701Z,34.23
2018-11-10T10:38:05.593Z,35.43
2018-11-10T10:40:37.842Z,35.37
2018-11-10T10:43:11.076Z,38.57
2018-11-10T10:45:44.481Z,34.80
2018-11-10T10:48:16.649Z,27.53
2018-11-10T10:50:48.515Z,34.67
2018-11-10T10:53:20.551Z,34.67
2018-11-10T10:55:52.700Z,34.47
2018-11-10T10:58:25.176Z,33.40
2018-11-10T11:01:02.155Z,32.73
2018-11-10T11:03:39.257Z,34.47
2018-11-10T11:06:12.560Z,33.27
2018-11-10T11:08:44.624Z,35.13
2018-11-10T11:11:16.536Z,38.23
2018-11-10T11:13:48.486Z,35.40
2018-11-10T11:16:20.756Z,30.57
2018-11-10T11:18:52.853Z,30.33
2018-11-10T11:21:25.359Z,24.40
2018-11-10T11:23:57.573Z,32.77
2018-11-10T11:26:29.609Z,25.73
2018-11-10T11:29:02.001Z,26.80
2018-11-10T11:31:34.137Z,31.97
2018-11-10T11:34:06.402Z,23.70
2018-11-10T11:36:38.420Z,30.30
2018-11-10T11:39:12.173Z,28.80
2018-11-10T11:41:43.996Z,25.47
2018-11-10T11:44:16.184Z,28.03
2018-11-10T11:46:48.085Z,28.03
2018-11-10T11:49:20.306Z,20.70
2018-11-10T11:51:53.168Z,20.47
2018-11-10T11:54:26.032Z,25.63
2018-11-10T11:56:58.423Z,27.77
2018-11-10T11:59:30.733Z,23.03
2018-11-10T12:02:02.978Z,29.03
2018-11-10T12:04:35.127Z,18.80
2018-11-10T12:07:07.273Z,21.17
2018-11-10T12:09:40.601Z,28.80
2018-11-10T12:12:13.230Z,19.37
2018-11-10T12:14:45.194Z,17.23
2018-11-10T12:17:19.298Z,21.97
2018-11-10T12:19:52.260Z,21.00
2018-11-10T12:22:24.367Z,22.60
2018-11-10T12:24:56.316Z,17.90
2018-11-10T12:27:28.537Z,21.20
2018-11-10T12:30:00.725Z,15.73
2018-11-10T12:32:32.760Z,16.47
2018-11-10T12:35:05.149Z,16.50
2018-11-10T12:37:37.309Z,17.70
2018-11-10T12:40:10.745Z,13.70
2018-11-10T12:42:43.268Z,16.10
2018-11-10T12:45:15.412Z,16.23
2018-11-10T12:47:47.267Z,16.53
2018-11-10T12:50:20.396Z,16.13
2018-11-10T12:52:54.382Z,21.33
2018-11-10T12:55:27.735Z,17.13
2018-11-10T12:58:00.507Z,20.83
2018-11-10T13:00:32.757Z,17.13
2018-11-10T13:03:05.633Z,17.30
2018-11-10T13:05:37.752Z,18.47
2018-11-10T13:08:09.849Z,18.13
2018-11-10T13:10:42.092Z,15.97
2018-11-10T13:13:14.059Z,14.80
2018-11-10T13:15:46.177Z,17.67
2018-11-10T13:18:18.523Z,15.70
2018-11-10T13:20:51.437Z,15.27
2018-11-10T13:23:23.799Z,10.97
2018-11-10T13:25:55.907Z,15.93
2018-11-10T13:28:28.148Z,16.90
2018-11-10T13:31:00.435Z,14.83
2018-11-10T13:33:32.592Z,11.87
2018-11-10T13:36:04.954Z,16.03
2018-11-10T13:38:36.907Z,13.17
2018-11-10T13:41:15.490Z,15.60
2018-11-10T13:43:55.491Z,20.60
2018-11-10T13:46:28.280Z,16.40
2018-11-10T13:49:01.115Z,14.50
2018-11-10T13:51:33.480Z,18.33
2018-11-10T13:54:05.512Z,17.13
2018-11-10T13:56:37.611Z,14.93
2018-11-10T13:59:09.854Z,16.57
2018-11-10T14:01:42.160Z,16.83
2018-11-10T14:04:14.647Z,17.40
2018-11-10T14:06:46.613Z,17.20
2018-11-10T14:09:18.909Z,15.93
2018-11-10T14:11:51.180Z,18.23
2018-11-10T14:14:23.488Z,21.47
2018-11-10T14:16:55.731Z,16.53
2018-11-10T14:19:27.840Z,18.67
2018-11-10T14:21:59.858Z,15.90
2018-11-10T14:24:31.838Z,15.70
2018-11-10T14:27:03.916Z,19.33
2018-11-10T14:29:36.028Z,14.70
2018-11-10T14:32:08.104Z,16.00
2018-11-10T14:34:40.257Z,16.47
2018-11-10T14:37:12.400Z,14.70
2018-11-10T14:39:44.474Z,15.40
2018-11-10T14:42:17.341Z,20.40
2018-11-10T14:44:49.292Z,14.03
2018-11-10T14:47:21.431Z,16.33
2018-11-10T14:49:53.506Z,13.87
2018-11-10T14:52:25.495Z,15.37
2018-11-10T14:54:57.791Z,15.40
2018-11-10T14:57:29.852Z,20.70
2018-11-10T15:00:01.997Z,17.40
2018-11-10T15:02:34.381Z,16.20
2018-11-10T15:05:07.310Z,15.57
2018-11-10T15:07:40.756Z,16.30
2018-11-10T15:10:15.867Z,14.30
2018-11-10T15:12:48.072Z,13.07
2018-11-10T15:15:20.694Z,13.80
2018-11-10T15:17:52.985Z,12.27
2018-11-10T15:20:25.293Z,14.30
2018-11-10T15:22:57.579Z,14.50
2018-11-10T15:25:30.155Z,12.90
2018-11-10T15:28:03.323Z,14.90
2018-11-10T15:30:36.223Z,15.03
2018-11-10T15:33:08.331Z,16.13
2018-11-10T15:35:41.286Z,16.33
2018-11-10T15:38:13.960Z,15.70
2018-11-10T15:40:46.385Z,16.37
2018-11-10T15:43:18.418Z,15.20
2018-11-10T15:45:50.293Z,13.90
2018-11-10T15:48:22.722Z,16.77
2018-11-10T15:50:54.708Z,13.73
2018-11-10T15:53:26.850Z,17.03
2018-11-10T15:55:58.810Z,16.77
2018-11-10T15:58:30.793Z,13.53
2018-11-10T16:01:02.922Z,14.40
2018-11-10T16:03:34.736Z,15.47
2018-11-10T16:06:06.976Z,14.07
2018-11-10T16:08:39.229Z,13.53
2018-11-10T16:11:11.825Z,12.60
2018-11-10T16:13:43.869Z,22.07
2018-11-10T16:16:16.032Z,14.77
2018-11-10T16:18:48.321Z,17.63
2018-11-10T16:21:20.343Z,15.53
2018-11-10T16:23:52.799Z,16.07
2018-11-10T16:26:25.036Z,17.60
2018-11-10T16:28:57.294Z,18.57
2018-11-10T16:31:29.621Z,17.80
2018-11-10T16:34:01.819Z,17.60
2018-11-10T16:36:33.795Z,17.83
2018-11-10T16:39:08.934Z,20.10
2018-11-10T16:41:40.994Z,15.40
2018-11-10T16:44:13.334Z,18.10
2018-11-10T16:46:45.416Z,17.07
2018-11-10T16:49:17.479Z,22.63
2018-11-10T16:51:49.573Z,15.53
2018-11-10T16:54:21.679Z,20.40
2018-11-10T16:56:54.029Z,23.10
2018-11-10T16:59:26.224Z,17.60
2018-11-10T17:01:58.519Z,16.13
2018-11-10T17:04:30.775Z,15.23
2018-11-10T17:07:02.807Z,13.03
2018-11-10T17:09:34.850Z,17.53
2018-11-10T17:12:07.021Z,18.47
2018-11-10T17:14:39.275Z,18.20
2018-11-10T17:17:11.574Z,18.00
2018-11-10T17:19:44.018Z,17.87
2018-11-10T17:22:16.530Z,16.20
2018-11-10T17:24:48.449Z,19.20
2018-11-10T17:27:20.840Z,24.90
2018-11-10T17:29:53.602Z,19.23
2018-11-10T17:32:25.912Z,16.63
2018-11-10T17:34:58.021Z,22.90
2018-11-10T17:37:31.112Z,19.70
2018-11-10T17:40:04.181Z,17.23
2018-11-10T17:42:36.269Z,19.30
2018-11-10T17:45:09.792Z,22.20
2018-11-10T17:47:42.148Z,204.67
2018-11-10T17:50:15.223Z,188.67
2018-11-10T17:52:47.699Z,192.90
2018-11-10T17:55:19.908Z,124.43
2018-11-10T17:57:52.929Z,108.10
2018-11-10T18:00:25.210Z,89.33
2018-11-10T18:02:57.524Z,92.20
2018-11-10T18:05:29.804Z,60.40
2018-11-10T18:08:02.104Z,60.43
2018-11-10T18:10:34.289Z,54.27
2018-11-10T18:13:06.674Z,48.30
2018-11-10T18:15:38.977Z,48.23
2018-11-10T18:18:11.144Z,40.80
2018-11-10T18:20:43.420Z,34.47
2018-11-10T18:23:16.261Z,37.47
2018-11-10T18:25:48.947Z,39.33
2018-11-10T18:28:21.704Z,34.53
2018-11-10T18:30:55.025Z,29.43
2018-11-10T18:33:27.147Z,32.70
2018-11-10T18:35:59.873Z,31.87
2018-11-10T18:38:32.144Z,35.00
2018-11-10T18:41:04.392Z,31.33
2018-11-10T18:43:36.481Z,25.47
2018-11-10T18:46:08.921Z,22.97
2018-11-10T18:48:41.484Z,29.20
2018-11-10T18:51:13.725Z,30.37
2018-11-10T18:53:46.336Z,30.43
2018-11-10T18:56:18.786Z,28.90
2018-11-10T18:58:51.110Z,26.60
2018-11-10T19:01:24.228Z,28.73
2018-11-10T19:03:57.446Z,25.23
2018-11-10T19:06:29.939Z,26.87
2018-11-10T19:09:02.042Z,26.27
2018-11-10T19:11:35.330Z,28.77
2018-11-10T19:14:07.898Z,26.87
2018-11-10T19:16:41.732Z,29.00
2018-11-10T19:19:14.070Z,25.47
2018-11-10T19:21:46.281Z,29.30
2018-11-10T19:24:20.263Z,26.50
2018-11-10T19:26:53.456Z,24.90
2018-11-10T19:29:25.726Z,32.00
2018-11-10T19:31:59.620Z,29.77
2018-11-10T19:34:31.789Z,28.63
2018-11-10T19:37:07.328Z,26.97
2018-11-10T19:39:39.972Z,30.77
2018-11-10T19:42:12.198Z,25.70
2018-11-10T19:44:45.143Z,29.70
2018-11-10T19:47:17.433Z,32.20
2018-11-10T19:49:49.688Z,30.63
2018-11-10T19:52:21.786Z,26.83
2018-11-10T19:54:54.282Z,31.17
2018-11-10T19:57:26.608Z,30.10
2018-11-10T19:59:58.745Z,31.83
2018-11-10T20:02:32.453Z,30.17
2018-11-10T20:05:04.558Z,28.03
2018-11-10T20:07:37.003Z,30.47
2018-11-10T20:10:10.951Z,33.83
2018-11-10T20:12:44.241Z,31.87
2018-11-10T20:15:17.374Z,30.70
2018-11-10T20:17:49.778Z,32.17
2018-11-10T20:20:22.833Z,30.93
2018-11-10T20:22:55.088Z,33.53
2018-11-10T20:25:27.789Z,33.00
2018-11-10T20:27:59.955Z,36.53
2018-11-10T20:30:32.438Z,33.07
2018-11-10T20:33:05.192Z,36.27
2018-11-10T20:35:37.618Z,31.17
2018-11-10T20:38:09.720Z,31.77
2018-11-10T20:40:42.089Z,32.80
2018-11-10T20:43:14.223Z,31.00
2018-11-10T20:45:46.422Z,30.40
2018-11-10T20:48:18.527Z,33.43
2018-11-10T20:50:50.673Z,42.90
2018-11-10T20:53:23.076Z,40.53
2018-11-10T20:55:55.452Z,34.27
2018-11-10T20:58:27.577Z,36.43
2018-11-10T21:01:00.025Z,38.17
2018-11-10T21:03:33.042Z,35.77
2018-11-10T21:06:05.544Z,36.77
2018-11-10T21:08:37.676Z,31.47
2018-11-10T21:11:10.727Z,31.53
2018-11-10T21:13:43.041Z,30.80
2018-11-10T21:16:15.216Z,33.90
2018-11-10T21:18:47.590Z,33.83
2018-11-10T21:21:19.861Z,40.53
2018-11-10T21:23:52.499Z,35.73
2018-11-10T21:26:24.706Z,34.97
2018-11-10T21:28:57.172Z,33.90
2018-11-10T21:31:30.313Z,35.87
2018-11-10T21:34:02.489Z,34.47
2018-11-10T21:36:35.341Z,37.30
2018-11-10T21:39:10.891Z,35.93
2018-11-10T21:41:43.229Z,33.27
2018-11-10T21:44:15.432Z,33.23
2018-11-10T21:46:47.891Z,35.53
2018-11-10T21:49:20.375Z,28.97
2018-11-10T21:51:58.087Z,38.10
2018-11-10T21:54:30.322Z,37.90
2018-11-10T21:57:03.266Z,34.40
2018-11-10T21:59:35.464Z,32.90
2018-11-10T22:02:07.730Z,35.93
2018-11-10T22:04:40.029Z,30.60
2018-11-10T22:07:12.419Z,32.10
2018-11-10T22:09:44.772Z,31.73
2018-11-10T22:12:17.226Z,31.07
2018-11-10T22:14:49.981Z,37.50
2018-11-10T22:17:22.173Z,34.63
2018-11-10T22:19:54.316Z,35.80
2018-11-10T22:22:27.061Z,34.33
2018-11-10T22:24:59.678Z,38.53
2018-11-10T22:27:31.871Z,33.53
2018-11-10T22:30:04.386Z,32.27
2018-11-10T22:32:36.552Z,38.13
2018-11-10T22:35:09.133Z,35.00
2018-11-10T22:37:41.113Z,34.20
2018-11-10T22:40:14.839Z,36.10
2018-11-10T22:42:47.211Z,34.97
2018-11-10T22:45:20.540Z,31.23
2018-11-10T22:47:53.282Z,27.50
2018-11-10T22:50:26.167Z,29.23
2018-11-10T22:52:58.464Z,32.27
2018-11-10T22:55:30.871Z,35.03
2018-11-10T22:58:02.953Z,30.57
2018-11-10T23:00:36.041Z,29.93
2018-11-10T23:03:08.656Z,27.50
2018-11-10T23:05:40.800Z,25.93
2018-11-10T23:08:13.024Z,33.47
2018-11-10T23:10:45.007Z,31.83
2018-11-10T23:13:17.258Z,31.90
2018-11-10T23:15:49.530Z,32.97
2018-11-10T23:18:21.596Z,29.93
2018-11-10T23:20:53.945Z,29.67
2018-11-10T23:23:26.809Z,28.80
2018-11-10T23:25:59.008Z,30.10
2018-11-10T23:28:30.987Z,25.40
2018-11-10T23:31:03.267Z,31.50
2018-11-10T23:33:36.185Z,31.13
2018-11-10T23:36:08.724Z,27.40
2018-11-10T23:38:40.602Z,27.67
2018-11-10T23:41:13.437Z,31.70
2018-11-10T23:43:45.617Z,30.50
2018-11-10T23:46:17.884Z,31.90
2018-11-10T23:48:49.949Z,25.57
2018-11-10T23:51:22.158Z,31.30
2018-11-10T23:53:54.122Z,28.67
2018-11-10T23:56:26.493Z,25.57
2018-11-10T23:58:58.859Z,24.63
